Terminal Aerodrome Forecast
Issued by NWS

Home | Current Version | Previous Version | Text Only | Print | Product List | Glossary On
Versions: 1 2 3 4 5 6 7 8 9 10 11 12 13 14 15 16 17 18 19 20 21 22 23 24 25 26 27 28 29 30 31 32
000
FTUS43 KDLH 192300 RRA
TAFHIB
TAF
KHIB 192342Z 2000/2024 27005KT P6SM SCT060
     FM200200 VRB03KT P6SM SCT050
      TEMPO 2008/2012 2SM BR SCT010
     FM201400 18010KT P6SM SCT040
     FM201800 19012KT P6SM BKN050=

USA.gov is the U.S. government's official web portal to all federal, state and local government web resources and services.